createdAt,value
2023-04-16T00:02:41.346Z,10.68
2023-04-16T00:05:43.926Z,10.65
2023-04-16T00:08:46.252Z,10.63
2023-04-16T00:11:48.558Z,10.63
2023-04-16T00:14:50.855Z,10.62
2023-04-16T00:17:53.144Z,10.59
2023-04-16T00:20:55.531Z,10.57
2023-04-16T00:23:57.870Z,10.46
2023-04-16T00:27:00.150Z,10.50
2023-04-16T00:30:02.546Z,10.51
2023-04-16T00:33:04.869Z,10.51
2023-04-16T00:36:07.468Z,10.53
2023-04-16T00:39:09.876Z,10.55
2023-04-16T00:42:12.270Z,10.59
2023-04-16T00:45:14.742Z,10.59
2023-04-16T00:48:17.229Z,10.58
2023-04-16T00:51:21.422Z,10.38
2023-04-16T00:54:25.314Z,10.11
2023-04-16T00:57:28.000Z,10.00
2023-04-16T01:00:30.359Z,10.19
2023-04-16T01:03:52.939Z,10.33
2023-04-16T01:06:55.288Z,10.38
2023-04-16T01:09:57.833Z,10.36
2023-04-16T01:13:00.064Z,10.34
2023-04-16T01:16:02.483Z,10.38
2023-04-16T01:19:04.781Z,10.40
2023-04-16T01:22:07.171Z,10.45
2023-04-16T01:25:14.258Z,10.43
2023-04-16T01:28:16.601Z,10.41
2023-04-16T01:31:19.406Z,10.39
2023-04-16T01:34:36.506Z,10.36
2023-04-16T01:37:38.822Z,10.33
2023-04-16T01:40:41.052Z,10.31
2023-04-16T01:43:43.312Z,10.28
2023-04-16T01:46:45.618Z,10.01
2023-04-16T01:49:48.343Z,9.88
2023-04-16T01:52:50.600Z,9.77
2023-04-16T01:55:52.841Z,9.96
2023-04-16T01:58:55.102Z,10.04
2023-04-16T02:02:07.794Z,10.09
2023-04-16T02:05:10.281Z,10.00
2023-04-16T02:08:12.516Z,10.03
2023-04-16T02:11:15.024Z,10.10
2023-04-16T02:14:18.247Z,10.12
2023-04-16T02:17:20.857Z,10.09
2023-04-16T02:20:26.253Z,10.10
2023-04-16T02:23:32.887Z,10.06
2023-04-16T02:26:35.823Z,10.04
2023-04-16T02:29:43.424Z,10.01
2023-04-16T02:32:50.312Z,10.07
2023-04-16T02:35:53.236Z,10.12
2023-04-16T02:38:55.650Z,10.13
2023-04-16T02:41:58.022Z,10.10
2023-04-16T02:45:00.293Z,10.04
2023-04-16T02:48:02.721Z,9.79
2023-04-16T02:51:05.373Z,9.64
2023-04-16T02:54:07.744Z,9.68
2023-04-16T02:57:10.016Z,9.72
2023-04-16T03:00:12.852Z,9.64
2023-04-16T03:03:15.413Z,9.62
2023-04-16T03:06:17.702Z,9.77
2023-04-16T03:09:19.979Z,9.60
2023-04-16T03:12:22.224Z,9.56
2023-04-16T03:15:25.279Z,9.63
2023-04-16T03:18:27.471Z,9.54
2023-04-16T03:21:29.866Z,9.60
2023-04-16T03:24:34.039Z,9.73
2023-04-16T03:27:36.311Z,9.77
2023-04-16T03:30:38.656Z,9.79
2023-04-16T03:33:42.600Z,9.79
2023-04-16T03:36:45.573Z,9.51
2023-04-16T03:39:47.790Z,9.66
2023-04-16T03:42:50.624Z,9.69
2023-04-16T03:45:52.924Z,9.73
2023-04-16T03:48:58.522Z,9.79
2023-04-16T03:52:00.972Z,9.83
2023-04-16T03:55:04.095Z,9.80
2023-04-16T03:58:07.318Z,9.85
2023-04-16T04:01:09.548Z,9.88
2023-04-16T04:04:13.302Z,9.71
2023-04-16T04:07:16.555Z,9.43
2023-04-16T04:10:18.799Z,9.38
2023-04-16T04:13:21.157Z,9.53
2023-04-16T04:16:24.580Z,9.45
2023-04-16T04:19:26.940Z,9.34
2023-04-16T04:22:29.472Z,9.56
2023-04-16T04:25:32.035Z,9.45
2023-04-16T04:28:35.253Z,9.65
2023-04-16T04:31:37.698Z,9.96
2023-04-16T04:34:40.065Z,10.09
2023-04-16T04:37:44.077Z,10.16
2023-04-16T04:40:53.175Z,10.23
2023-04-16T04:43:56.937Z,10.24
2023-04-16T04:47:00.676Z,10.20
2023-04-16T04:50:03.177Z,10.13
2023-04-16T04:53:10.180Z,10.14
2023-04-16T04:56:13.377Z,10.09
2023-04-16T04:59:16.307Z,10.20
2023-04-16T05:02:19.473Z,10.11
2023-04-16T05:05:22.068Z,10.28
2023-04-16T05:08:24.386Z,10.13
2023-04-16T05:11:26.625Z,10.33
2023-04-16T05:14:28.965Z,10.50
2023-04-16T05:17:31.486Z,10.60
2023-04-16T05:20:33.815Z,10.63
2023-04-16T05:23:36.044Z,10.50
2023-04-16T05:26:38.328Z,10.39
2023-04-16T05:29:40.760Z,10.57
2023-04-16T05:32:43.109Z,10.57
2023-04-16T05:35:45.501Z,10.47
2023-04-16T05:38:47.739Z,10.34
2023-04-16T05:41:50.015Z,10.27
2023-04-16T05:44:52.829Z,10.14
2023-04-16T05:47:55.184Z,10.24
2023-04-16T05:50:57.577Z,10.42
2023-04-16T05:53:59.810Z,10.50
2023-04-16T05:57:02.358Z,10.69
2023-04-16T06:00:05.280Z,10.76
2023-04-16T06:03:14.286Z,10.71
2023-04-16T06:06:17.816Z,10.70
2023-04-16T06:09:20.072Z,10.63
2023-04-16T06:12:22.404Z,10.49
2023-04-16T06:15:24.614Z,10.36
2023-04-16T06:18:26.875Z,10.23
2023-04-16T06:21:29.558Z,10.39
2023-04-16T06:24:31.950Z,10.68
2023-04-16T06:27:34.217Z,10.94
2023-04-16T06:30:36.562Z,11.26
2023-04-16T06:33:38.810Z,11.50
2023-04-16T06:36:41.161Z,11.83
2023-04-16T06:39:43.464Z,12.09
2023-04-16T06:42:45.843Z,12.27
2023-04-16T06:45:48.125Z,12.13
2023-04-16T06:48:50.558Z,12.23
2023-04-16T06:51:52.863Z,12.12
2023-04-16T06:54:55.211Z,11.64
2023-04-16T06:57:57.430Z,11.49
2023-04-16T07:01:00.000Z,11.17
2023-04-16T07:04:02.625Z,11.41
2023-04-16T07:07:05.065Z,12.00
2023-04-16T07:10:08.315Z,12.54
2023-04-16T07:13:10.663Z,13.54
2023-04-16T07:16:12.935Z,14.58
2023-04-16T07:19:15.280Z,15.02
2023-04-16T07:22:17.707Z,15.44
2023-04-16T07:25:20.065Z,15.22
2023-04-16T07:28:22.337Z,14.91
2023-04-16T07:31:24.608Z,15.02
2023-04-16T07:34:26.910Z,14.58
2023-04-16T07:37:29.289Z,14.77
2023-04-16T07:40:31.588Z,14.49
2023-04-16T07:43:33.832Z,14.30
2023-04-16T07:46:45.543Z,14.00
2023-04-16T07:49:50.681Z,14.12
2023-04-16T07:52:53.771Z,13.27
2023-04-16T07:55:56.101Z,13.01
2023-04-16T07:59:02.847Z,12.46
2023-04-16T08:02:13.615Z,12.37
2023-04-16T08:05:16.093Z,12.15
2023-04-16T08:08:18.335Z,12.20
2023-04-16T08:11:20.721Z,13.27
2023-04-16T08:14:23.218Z,13.45
2023-04-16T08:17:25.532Z,13.89
2023-04-16T08:20:27.912Z,14.07
2023-04-16T08:23:30.253Z,14.06
2023-04-16T08:26:32.488Z,14.30
2023-04-16T08:29:34.731Z,14.67
2023-04-16T08:32:37.047Z,14.26
2023-04-16T08:35:39.388Z,14.04
2023-04-16T08:38:41.671Z,13.55
2023-04-16T08:41:46.664Z,13.27
2023-04-16T08:44:50.058Z,13.14
2023-04-16T08:47:52.925Z,12.86
2023-04-16T08:50:55.782Z,12.89
2023-04-16T08:54:12.540Z,12.96
2023-04-16T08:57:20.529Z,13.02
2023-04-16T09:00:23.216Z,13.31
2023-04-16T09:03:25.767Z,13.45
2023-04-16T09:06:28.477Z,13.52
2023-04-16T09:09:31.940Z,13.61
2023-04-16T09:12:35.802Z,13.44
2023-04-16T09:15:38.110Z,13.37
2023-04-16T09:18:41.263Z,13.29
2023-04-16T09:21:46.919Z,13.14
2023-04-16T09:24:49.198Z,13.19
2023-04-16T09:27:51.569Z,13.15
2023-04-16T09:31:08.337Z,13.37
2023-04-16T09:34:10.873Z,13.34
2023-04-16T09:37:17.312Z,13.50
2023-04-16T09:40:25.082Z,13.59
2023-04-16T09:43:27.340Z,13.56
2023-04-16T09:46:30.377Z,13.62
2023-04-16T09:49:34.818Z,13.76
2023-04-16T09:52:40.352Z,13.79
2023-04-16T09:55:42.657Z,14.04
2023-04-16T09:58:46.066Z,14.07
2023-04-16T10:02:12.277Z,14.12
2023-04-16T10:05:20.060Z,14.15
2023-04-16T10:08:24.080Z,14.24
2023-04-16T10:11:26.482Z,14.33
2023-04-16T10:14:28.758Z,14.38
2023-04-16T10:17:31.642Z,14.68
2023-04-16T10:20:33.760Z,14.93
2023-04-16T10:23:36.003Z,15.02
2023-04-16T10:26:39.291Z,14.90
2023-04-16T10:29:41.661Z,14.93
2023-04-16T10:32:44.974Z,15.21
2023-04-16T10:35:54.996Z,15.37
2023-04-16T10:39:12.182Z,15.36
2023-04-16T10:42:15.928Z,15.33
2023-04-16T10:45:21.478Z,15.46
2023-04-16T10:48:31.000Z,15.50
2023-04-16T10:51:41.476Z,15.54
2023-04-16T10:54:43.819Z,15.67
2023-04-16T10:57:49.719Z,15.89
2023-04-16T11:00:52.335Z,15.89
2023-04-16T11:03:54.889Z,15.97
2023-04-16T11:07:16.420Z,15.95
2023-04-16T11:10:18.938Z,15.97
2023-04-16T11:13:21.222Z,16.01
2023-04-16T11:16:25.483Z,16.04
2023-04-16T11:19:28.634Z,16.13
2023-04-16T11:22:38.728Z,16.16
2023-04-16T11:25:43.541Z,16.03
2023-04-16T11:28:45.981Z,16.03
2023-04-16T11:31:55.189Z,15.98
2023-04-16T11:34:57.636Z,15.92
2023-04-16T11:38:00.257Z,15.89
2023-04-16T11:41:03.165Z,15.74
2023-04-16T11:44:26.473Z,15.68
2023-04-16T11:47:30.571Z,15.56
2023-04-16T11:50:32.918Z,15.48
2023-04-16T11:53:36.618Z,15.49
2023-04-16T11:56:38.947Z,15.54
2023-04-16T12:00:02.473Z,15.67
2023-04-16T12:03:14.942Z,15.72
2023-04-16T12:06:17.386Z,15.87
2023-04-16T12:09:26.176Z,15.86
2023-04-16T12:12:31.463Z,15.86
2023-04-16T12:15:51.372Z,16.09
2023-04-16T12:19:04.190Z,16.16
2023-04-16T12:22:06.628Z,16.12
2023-04-16T12:25:16.720Z,16.20
2023-04-16T12:28:36.901Z,16.27
2023-04-16T12:31:39.244Z,16.20
2023-04-16T12:34:51.284Z,16.28
2023-04-16T12:37:53.539Z,16.30
2023-04-16T12:40:57.752Z,16.28
2023-04-16T12:44:16.609Z,16.29
2023-04-16T12:47:18.938Z,16.22
2023-04-16T12:50:21.610Z,16.32
2023-04-16T12:53:23.968Z,16.28
2023-04-16T12:56:26.476Z,16.34
2023-04-16T12:59:28.755Z,16.38
2023-04-16T13:02:32.263Z,16.37
2023-04-16T13:05:34.674Z,16.43
2023-04-16T13:08:37.526Z,16.29
2023-04-16T13:11:39.634Z,16.31
2023-04-16T13:14:43.371Z,16.46
2023-04-16T13:17:47.400Z,16.45
2023-04-16T13:20:49.881Z,16.50
2023-04-16T13:23:52.296Z,16.58
2023-04-16T13:26:56.308Z,16.67
2023-04-16T13:29:58.616Z,16.64
2023-04-16T13:33:00.927Z,16.60
2023-04-16T13:36:03.410Z,16.53
2023-04-16T13:39:10.689Z,16.48
2023-04-16T13:42:13.191Z,16.49
2023-04-16T13:45:15.460Z,16.48
2023-04-16T13:48:17.933Z,16.64
2023-04-16T13:51:20.288Z,16.66
2023-04-16T13:54:22.561Z,16.64
2023-04-16T13:57:24.978Z,16.69
2023-04-16T14:00:27.694Z,16.74
2023-04-16T14:03:30.097Z,16.76
2023-04-16T14:06:33.240Z,16.73
2023-04-16T14:09:35.730Z,16.78
2023-04-16T14:12:38.745Z,16.70
2023-04-16T14:15:41.082Z,16.74
2023-04-16T14:18:43.367Z,16.69
2023-04-16T14:21:45.793Z,16.52
2023-04-16T14:24:48.041Z,16.53
2023-04-16T14:27:50.375Z,16.56
2023-04-16T14:30:52.648Z,16.54
2023-04-16T14:33:54.989Z,16.60
2023-04-16T14:36:57.229Z,16.55
2023-04-16T14:40:00.069Z,16.51
2023-04-16T14:43:02.206Z,16.35
2023-04-16T14:46:06.551Z,16.24
2023-04-16T14:49:11.906Z,16.24
2023-04-16T14:52:14.614Z,16.20
2023-04-16T14:55:16.928Z,16.17
2023-04-16T14:58:19.252Z,16.20
2023-04-16T15:01:21.488Z,16.21
2023-04-16T15:04:24.713Z,16.10
2023-04-16T15:07:27.652Z,16.08
2023-04-16T15:10:29.881Z,16.14
2023-04-16T15:13:34.192Z,16.19
2023-04-16T15:16:36.874Z,16.23
2023-04-16T15:19:39.151Z,16.25
2023-04-16T15:22:41.477Z,16.28
2023-04-16T15:25:43.735Z,16.30
2023-04-16T15:28:46.197Z,16.28
2023-04-16T15:31:48.492Z,16.33
2023-04-16T15:34:50.989Z,16.36
2023-04-16T15:37:53.878Z,16.37
2023-04-16T15:40:58.353Z,16.39
2023-04-16T15:44:00.651Z,16.33
2023-04-16T15:47:03.042Z,16.29
2023-04-16T15:50:05.947Z,16.19
2023-04-16T15:53:08.061Z,16.19
2023-04-16T15:56:10.206Z,16.18
2023-04-16T15:59:12.926Z,16.19
2023-04-16T16:02:15.616Z,16.11
2023-04-16T16:05:18.976Z,16.13
2023-04-16T16:08:21.399Z,16.16
2023-04-16T16:11:23.666Z,16.04
2023-04-16T16:14:27.073Z,15.95
2023-04-16T16:17:29.783Z,15.98
2023-04-16T16:20:32.113Z,15.94
2023-04-16T16:23:34.685Z,16.05
2023-04-16T16:26:37.574Z,16.07
2023-04-16T16:29:39.829Z,16.14
2023-04-16T16:32:44.077Z,16.17
2023-04-16T16:35:46.366Z,16.18
2023-04-16T16:38:48.670Z,16.14
2023-04-16T16:41:52.613Z,16.20
2023-04-16T16:44:56.760Z,16.20
2023-04-16T16:47:59.901Z,16.24
2023-04-16T16:51:02.153Z,16.25
2023-04-16T16:54:04.575Z,16.25
2023-04-16T16:57:07.156Z,16.23
2023-04-16T17:00:14.406Z,16.14
2023-04-16T17:03:17.104Z,16.19
2023-04-16T17:06:21.105Z,16.20
2023-04-16T17:09:23.375Z,16.21
2023-04-16T17:12:26.247Z,16.20
2023-04-16T17:15:28.465Z,16.19
2023-04-16T17:18:30.739Z,16.16
2023-04-16T17:21:33.921Z,16.11
2023-04-16T17:24:36.254Z,16.10
2023-04-16T17:27:41.414Z,16.08
2023-04-16T17:30:43.890Z,16.03
2023-04-16T17:33:46.177Z,15.99
2023-04-16T17:36:50.478Z,15.93
2023-04-16T17:39:52.879Z,15.88
2023-04-16T17:42:55.122Z,15.81
2023-04-16T17:45:57.374Z,15.84
2023-04-16T17:48:59.683Z,15.82
2023-04-16T17:52:02.034Z,15.79
2023-04-16T17:55:07.772Z,15.74
2023-04-16T17:58:10.376Z,15.69
2023-04-16T18:01:12.723Z,15.52
2023-04-16T18:04:15.462Z,15.37
2023-04-16T18:07:18.060Z,15.31
2023-04-16T18:10:20.462Z,15.25
2023-04-16T18:13:24.045Z,15.38
2023-04-16T18:16:26.735Z,15.46
2023-04-16T18:19:29.097Z,15.46
2023-04-16T18:22:31.887Z,15.45
2023-04-16T18:25:35.175Z,15.49
2023-04-16T18:28:37.823Z,15.44
2023-04-16T18:31:40.177Z,15.45
2023-04-16T18:34:42.585Z,15.42
2023-04-16T18:37:47.952Z,15.37
2023-04-16T18:40:50.387Z,15.35
2023-04-16T18:43:52.701Z,15.28
2023-04-16T18:46:54.966Z,15.26
2023-04-16T18:49:57.309Z,15.25
2023-04-16T18:52:59.793Z,15.22
2023-04-16T18:56:02.127Z,15.16
2023-04-16T18:59:04.426Z,15.17
2023-04-16T19:02:07.274Z,15.16
2023-04-16T19:05:09.749Z,15.15
2023-04-16T19:08:12.074Z,15.10
2023-04-16T19:11:14.390Z,15.12
2023-04-16T19:14:16.642Z,15.08
2023-04-16T19:17:18.967Z,15.02
2023-04-16T19:20:21.360Z,14.95
2023-04-16T19:23:23.599Z,14.79
2023-04-16T19:26:27.036Z,14.74
2023-04-16T19:29:33.505Z,14.65
2023-04-16T19:32:36.471Z,14.61
2023-04-16T19:35:38.747Z,14.77
2023-04-16T19:38:41.172Z,14.82
2023-04-16T19:41:43.424Z,14.91
2023-04-16T19:44:45.678Z,14.91
2023-04-16T19:47:48.811Z,14.97
2023-04-16T19:50:51.239Z,14.97
2023-04-16T19:53:53.851Z,14.96
2023-04-16T19:56:57.067Z,14.98
2023-04-16T19:59:59.337Z,14.99
2023-04-16T20:03:02.250Z,14.98
2023-04-16T20:06:05.506Z,14.98
2023-04-16T20:09:07.765Z,14.97
2023-04-16T20:12:10.041Z,14.97
2023-04-16T20:15:12.325Z,14.98
2023-04-16T20:18:14.657Z,15.00
2023-04-16T20:21:16.902Z,14.99
2023-04-16T20:24:19.240Z,14.90
2023-04-16T20:27:21.748Z,14.71
2023-04-16T20:30:29.013Z,14.65
2023-04-16T20:33:31.446Z,14.69
2023-04-16T20:36:33.678Z,14.71
2023-04-16T20:39:40.126Z,14.64
2023-04-16T20:42:46.280Z,14.69
2023-04-16T20:45:50.035Z,14.60
2023-04-16T20:48:52.402Z,14.59
2023-04-16T20:51:54.698Z,14.73
2023-04-16T20:54:57.041Z,14.83
2023-04-16T20:57:59.446Z,14.82
2023-04-16T21:01:01.923Z,14.79
2023-04-16T21:04:04.445Z,14.66
2023-04-16T21:07:06.879Z,14.65
2023-04-16T21:10:10.576Z,14.56
2023-04-16T21:13:13.224Z,14.56
2023-04-16T21:16:15.615Z,14.72
2023-04-16T21:19:17.870Z,14.81
2023-04-16T21:22:20.161Z,14.86
2023-04-16T21:25:24.775Z,14.70
2023-04-16T21:28:27.036Z,14.78
2023-04-16T21:31:29.364Z,14.84
2023-04-16T21:34:31.608Z,14.89
2023-04-16T21:37:33.989Z,14.71
2023-04-16T21:40:36.255Z,14.58
2023-04-16T21:43:38.472Z,14.48
2023-04-16T21:46:40.821Z,14.33
2023-04-16T21:49:43.115Z,14.32
2023-04-16T21:52:46.310Z,14.35
2023-04-16T21:55:48.602Z,14.45
2023-04-16T21:58:51.089Z,14.40
2023-04-16T22:01:53.404Z,14.51
2023-04-16T22:04:55.727Z,14.60
2023-04-16T22:07:57.966Z,14.67
2023-04-16T22:11:01.912Z,14.68
2023-04-16T22:14:08.251Z,14.72
2023-04-16T22:17:11.099Z,14.67
2023-04-16T22:20:13.447Z,14.73
2023-04-16T22:23:15.861Z,14.67
2023-04-16T22:26:18.133Z,14.62
2023-04-16T22:29:20.445Z,14.54
2023-04-16T22:32:22.931Z,14.55
2023-04-16T22:35:25.399Z,14.64
2023-04-16T22:38:27.711Z,14.64
2023-04-16T22:41:29.991Z,14.52
2023-04-16T22:44:32.473Z,14.45
2023-04-16T22:47:34.842Z,14.42
2023-04-16T22:50:37.098Z,14.28
2023-04-16T22:53:39.374Z,14.22
2023-04-16T22:56:41.707Z,14.16
2023-04-16T22:59:43.972Z,14.22
2023-04-16T23:02:46.639Z,14.28
2023-04-16T23:05:49.205Z,14.25
2023-04-16T23:08:51.493Z,14.23
2023-04-16T23:11:53.707Z,14.24
2023-04-16T23:14:56.422Z,14.21
2023-04-16T23:17:58.822Z,14.24
2023-04-16T23:21:01.084Z,14.19
2023-04-16T23:24:03.462Z,14.12
2023-04-16T23:27:05.810Z,14.04
2023-04-16T23:30:08.782Z,14.04
2023-04-16T23:33:11.078Z,14.06
2023-04-16T23:36:13.232Z,14.09
2023-04-16T23:39:15.473Z,14.13
2023-04-16T23:42:18.117Z,14.31
2023-04-16T23:45:20.415Z,14.18
2023-04-16T23:48:22.725Z,14.20
2023-04-16T23:51:26.238Z,14.10
2023-04-16T23:54:28.570Z,14.11
2023-04-16T23:57:31.008Z,14.25
